createdAt,value
2017-07-18T00:00:15.011Z,0
2017-07-18T00:01:16.842Z,0
2017-07-18T00:02:18.668Z,0
2017-07-18T00:03:20.538Z,0
2017-07-18T00:04:22.409Z,0
2017-07-18T00:05:24.300Z,0
2017-07-18T00:06:38.442Z,0
2017-07-18T00:07:40.311Z,0
2017-07-18T00:08:42.174Z,0
2017-07-18T00:09:44.042Z,0
2017-07-18T00:10:45.852Z,0
2017-07-18T00:11:47.653Z,0
2017-07-18T00:12:49.524Z,0
2017-07-18T00:13:51.394Z,0
2017-07-18T00:14:53.267Z,0
2017-07-18T00:16:07.434Z,0
2017-07-18T00:17:09.324Z,0
2017-07-18T00:18:11.197Z,0
2017-07-18T00:19:13.084Z,0
2017-07-18T00:20:14.899Z,0
2017-07-18T00:21:16.724Z,0
2017-07-18T00:22:18.613Z,0
2017-07-18T00:23:20.479Z,0
2017-07-18T00:24:22.354Z,0
2017-07-18T00:25:36.501Z,0
2017-07-18T00:26:38.393Z,0
2017-07-18T00:27:40.265Z,0
2017-07-18T00:28:42.158Z,0
2017-07-18T00:29:43.985Z,0
2017-07-18T00:30:45.791Z,0
2017-07-18T00:31:47.660Z,0
2017-07-18T00:32:49.549Z,0
2017-07-18T00:33:51.423Z,0
2017-07-18T00:35:05.585Z,0
2017-07-18T00:36:07.460Z,0
2017-07-18T00:37:09.326Z,0
2017-07-18T00:38:11.190Z,0
2017-07-18T00:39:12.994Z,0
2017-07-18T00:40:14.831Z,0
2017-07-18T00:41:16.718Z,0
2017-07-18T00:42:18.607Z,0
2017-07-18T00:43:20.473Z,0
2017-07-18T00:44:34.617Z,0
2017-07-18T00:45:36.511Z,0
2017-07-18T00:46:38.407Z,0
2017-07-18T00:47:40.296Z,0
2017-07-18T00:48:42.102Z,0
2017-07-18T00:49:43.905Z,0
2017-07-18T00:50:45.776Z,0
2017-07-18T00:51:47.665Z,0
2017-07-18T00:52:49.537Z,0
2017-07-18T00:54:03.677Z,0
2017-07-18T00:55:05.548Z,0
2017-07-18T00:56:07.443Z,0
2017-07-18T00:57:09.333Z,0
2017-07-18T00:58:11.165Z,0
2017-07-18T00:59:12.989Z,0
2017-07-18T01:00:14.876Z,0
2017-07-18T01:01:16.723Z,0
2017-07-18T01:02:18.596Z,0
2017-07-18T01:03:32.761Z,0
2017-07-18T01:04:34.658Z,0
2017-07-18T01:05:36.555Z,0
2017-07-18T01:06:38.424Z,0
2017-07-18T01:07:40.247Z,0
2017-07-18T01:08:42.058Z,0
2017-07-18T01:09:43.950Z,0
2017-07-18T01:10:45.824Z,0
2017-07-18T01:11:47.695Z,0
2017-07-18T01:13:01.818Z,0
2017-07-18T01:14:03.631Z,0
2017-07-18T01:15:05.522Z,0
2017-07-18T01:16:07.398Z,0
2017-07-18T01:17:09.295Z,0
2017-07-18T01:18:11.125Z,0
2017-07-18T01:19:12.952Z,0
2017-07-18T01:20:14.822Z,0
2017-07-18T01:21:16.692Z,0
2017-07-18T01:22:30.909Z,0
2017-07-18T01:23:32.777Z,0
2017-07-18T01:24:34.645Z,0
2017-07-18T01:25:36.513Z,0
2017-07-18T01:26:38.345Z,0
2017-07-18T01:27:40.146Z,0
2017-07-18T01:28:42.029Z,0
2017-07-18T01:29:43.922Z,0
2017-07-18T01:30:45.799Z,0
2017-07-18T01:31:59.946Z,0
2017-07-18T01:33:01.817Z,0
2017-07-18T01:34:03.689Z,0
2017-07-18T01:35:05.563Z,0
2017-07-18T01:36:07.390Z,0
2017-07-18T01:37:09.200Z,0
2017-07-18T01:38:11.102Z,0
2017-07-18T01:39:12.966Z,0
2017-07-18T01:40:14.837Z,0
2017-07-18T01:41:28.983Z,0
2017-07-18T01:42:30.879Z,0
2017-07-18T01:43:32.772Z,0
2017-07-18T01:44:34.669Z,0
2017-07-18T01:45:36.496Z,0
2017-07-18T01:46:38.303Z,0
2017-07-18T01:47:40.172Z,0
2017-07-18T01:48:42.048Z,0
2017-07-18T01:49:43.942Z,0
2017-07-18T01:50:58.089Z,0
2017-07-18T01:51:59.983Z,0
2017-07-18T01:53:01.857Z,0
2017-07-18T01:54:03.742Z,0
2017-07-18T01:55:05.525Z,0
2017-07-18T01:56:07.338Z,0
2017-07-18T01:57:09.233Z,0
2017-07-18T01:58:11.126Z,0
2017-07-18T01:59:13.006Z,0
2017-07-18T02:00:27.143Z,0
2017-07-18T02:01:29.018Z,0
2017-07-18T02:02:30.886Z,0
2017-07-18T02:03:32.754Z,0
2017-07-18T02:04:34.559Z,0
2017-07-18T02:05:36.367Z,0
2017-07-18T02:06:38.255Z,0
2017-07-18T02:07:40.130Z,0
2017-07-18T02:08:42.026Z,0
2017-07-18T02:09:56.166Z,0
2017-07-18T02:10:58.040Z,0
2017-07-18T02:11:59.909Z,0
2017-07-18T02:13:01.778Z,0
2017-07-18T02:14:03.588Z,0
2017-07-18T02:15:05.395Z,0
2017-07-18T02:16:07.290Z,0
2017-07-18T02:17:09.159Z,0
2017-07-18T02:18:11.053Z,0
2017-07-18T02:19:25.196Z,0
2017-07-18T02:20:27.067Z,0
2017-07-18T02:21:28.947Z,0
2017-07-18T02:22:30.828Z,0
2017-07-18T02:23:32.636Z,0
2017-07-18T02:24:34.444Z,0
2017-07-18T02:25:36.344Z,0
2017-07-18T02:26:38.234Z,0
2017-07-18T02:27:40.108Z,0
2017-07-18T02:28:54.251Z,0
2017-07-18T02:29:56.125Z,0
2017-07-18T02:30:57.990Z,0
2017-07-18T02:31:59.861Z,0
2017-07-18T02:33:01.671Z,0
2017-07-18T02:34:03.510Z,0
2017-07-18T02:35:05.387Z,0
2017-07-18T02:36:07.285Z,0
2017-07-18T02:37:09.156Z,0
2017-07-18T02:38:23.327Z,0
2017-07-18T02:39:25.224Z,0
2017-07-18T02:40:27.120Z,0
2017-07-18T02:41:28.990Z,0
2017-07-18T02:42:30.831Z,0
2017-07-18T02:43:32.626Z,0
2017-07-18T02:44:34.506Z,0
2017-07-18T02:45:36.402Z,0
2017-07-18T02:46:38.272Z,0
2017-07-18T02:47:52.415Z,0
2017-07-18T02:48:54.293Z,0
2017-07-18T02:49:56.186Z,0
2017-07-18T02:50:58.057Z,0
2017-07-18T02:51:59.864Z,0
2017-07-18T02:53:01.672Z,0
2017-07-18T02:54:03.566Z,0
2017-07-18T02:55:05.439Z,0
2017-07-18T02:56:07.346Z,5
2017-07-18T02:57:21.545Z,5
2017-07-18T02:58:23.426Z,5
2017-07-18T02:59:25.292Z,5
2017-07-18T03:00:27.190Z,5
2017-07-18T03:01:29.020Z,5
2017-07-18T03:02:30.834Z,10
2017-07-18T03:03:32.728Z,10
2017-07-18T03:04:34.607Z,10
2017-07-18T03:05:36.479Z,10
2017-07-18T03:06:50.632Z,15
2017-07-18T03:07:52.532Z,15
2017-07-18T03:08:54.436Z,15
2017-07-18T03:09:56.307Z,15
2017-07-18T03:10:58.143Z,20
2017-07-18T03:11:59.951Z,20
2017-07-18T03:13:01.826Z,20
2017-07-18T03:14:03.699Z,20
2017-07-18T03:15:05.597Z,25
2017-07-18T03:16:19.746Z,25
2017-07-18T03:17:21.648Z,30
2017-07-18T03:18:23.546Z,30
2017-07-18T03:19:25.441Z,35
2017-07-18T03:20:27.273Z,35
2017-07-18T03:21:29.087Z,40
2017-07-18T03:22:30.991Z,45
2017-07-18T03:23:32.881Z,45
2017-07-18T03:24:34.757Z,45
2017-07-18T03:25:48.927Z,50
2017-07-18T03:26:50.799Z,50
2017-07-18T03:27:52.692Z,50
2017-07-18T03:28:54.570Z,50
2017-07-18T03:29:56.404Z,50
2017-07-18T03:30:58.217Z,45
2017-07-18T03:32:00.108Z,45
2017-07-18T03:33:01.985Z,45
2017-07-18T03:34:03.883Z,45
2017-07-18T03:35:18.029Z,45
2017-07-18T03:36:19.907Z,45
2017-07-18T03:37:21.804Z,55
2017-07-18T03:38:23.675Z,65
2017-07-18T03:39:25.493Z,70
2017-07-18T03:40:27.328Z,75
2017-07-18T03:41:29.194Z,60
2017-07-18T03:42:31.073Z,70
2017-07-18T03:43:32.944Z,75
2017-07-18T03:44:47.100Z,90
2017-07-18T03:45:48.996Z,90
2017-07-18T03:46:50.898Z,95
2017-07-18T03:47:52.769Z,95
2017-07-18T03:48:54.579Z,90
2017-07-18T03:49:56.394Z,75
2017-07-18T03:50:58.295Z,75
2017-07-18T03:52:00.192Z,65
2017-07-18T03:53:02.090Z,60
2017-07-18T03:54:16.238Z,60
2017-07-18T03:55:18.135Z,60
2017-07-18T03:56:20.012Z,60
2017-07-18T03:57:21.880Z,60
2017-07-18T03:58:23.698Z,65
2017-07-18T03:59:25.532Z,65
2017-07-18T04:00:27.437Z,65
2017-07-18T04:01:29.327Z,65
2017-07-18T04:02:31.211Z,65
2017-07-18T04:03:45.381Z,70
2017-07-18T04:04:47.254Z,75
2017-07-18T04:05:49.127Z,75
2017-07-18T04:06:51.004Z,80
2017-07-18T04:07:52.845Z,80
2017-07-18T04:08:54.680Z,80
2017-07-18T04:09:56.580Z,80
2017-07-18T04:10:58.453Z,85
2017-07-18T04:12:00.324Z,85
2017-07-18T04:13:14.518Z,90
2017-07-18T04:14:16.394Z,90
2017-07-18T04:15:18.268Z,90
2017-07-18T04:16:20.144Z,95
2017-07-18T04:17:21.981Z,100
2017-07-18T04:18:23.799Z,105
2017-07-18T04:19:25.666Z,100
2017-07-18T04:20:27.549Z,100
2017-07-18T04:21:29.443Z,100
2017-07-18T04:22:43.601Z,105
2017-07-18T04:23:45.466Z,105
2017-07-18T04:24:47.351Z,105
2017-07-18T04:25:49.212Z,105
2017-07-18T04:26:51.032Z,105
2017-07-18T04:27:52.868Z,105
2017-07-18T04:28:54.775Z,105
2017-07-18T04:29:56.642Z,110
2017-07-18T04:30:58.539Z,100
2017-07-18T04:32:12.692Z,100
2017-07-18T04:33:14.594Z,95
2017-07-18T04:34:16.473Z,95
2017-07-18T04:35:18.370Z,95
2017-07-18T04:36:20.205Z,90
2017-07-18T04:37:22.017Z,90
2017-07-18T04:38:23.894Z,90
2017-07-18T04:39:25.764Z,90
2017-07-18T04:40:27.638Z,95
2017-07-18T04:41:41.791Z,95
2017-07-18T04:42:43.693Z,100
2017-07-18T04:43:45.594Z,100
2017-07-18T04:44:47.487Z,100
2017-07-18T04:45:49.305Z,100
2017-07-18T04:46:51.112Z,100
2017-07-18T04:47:52.991Z,100
2017-07-18T04:48:54.890Z,100
2017-07-18T04:49:56.771Z,100
2017-07-18T04:51:10.941Z,95
2017-07-18T04:52:12.817Z,95
2017-07-18T04:53:14.721Z,95
2017-07-18T04:54:16.617Z,100
2017-07-18T04:55:18.438Z,100
2017-07-18T04:56:20.271Z,100
2017-07-18T04:57:22.146Z,105
2017-07-18T04:58:24.043Z,105
2017-07-18T04:59:25.918Z,110
2017-07-18T05:00:40.076Z,110
2017-07-18T05:01:41.948Z,110
2017-07-18T05:02:43.830Z,110
2017-07-18T05:03:45.703Z,105
2017-07-18T05:04:47.521Z,105
2017-07-18T05:05:49.355Z,105
2017-07-18T05:06:51.233Z,105
2017-07-18T05:07:53.133Z,105
2017-07-18T05:08:55.010Z,105
2017-07-18T05:10:09.180Z,105
2017-07-18T05:11:11.060Z,105
2017-07-18T05:12:12.964Z,110
2017-07-18T05:13:14.860Z,110
2017-07-18T05:14:16.674Z,115
2017-07-18T05:15:18.484Z,115
2017-07-18T05:16:20.366Z,120
2017-07-18T05:17:22.266Z,120
2017-07-18T05:18:24.148Z,125
2017-07-18T05:19:38.299Z,130
2017-07-18T05:20:40.196Z,130
2017-07-18T05:21:42.076Z,130
2017-07-18T05:22:43.951Z,130
2017-07-18T05:23:45.767Z,130
2017-07-18T05:24:47.578Z,135
2017-07-18T05:25:49.459Z,135
2017-07-18T05:26:51.359Z,140
2017-07-18T05:27:53.256Z,140
2017-07-18T05:29:07.414Z,140
2017-07-18T05:30:09.312Z,140
2017-07-18T05:31:11.195Z,140
2017-07-18T05:32:13.098Z,140
2017-07-18T05:33:14.937Z,140
2017-07-18T05:34:16.773Z,140
2017-07-18T05:35:18.650Z,135
2017-07-18T05:36:20.524Z,135
2017-07-18T05:37:22.405Z,135
2017-07-18T05:38:36.587Z,135
2017-07-18T05:39:38.501Z,135
2017-07-18T05:40:40.402Z,135
2017-07-18T05:41:42.277Z,135
2017-07-18T05:42:44.120Z,135
2017-07-18T05:43:45.956Z,140
2017-07-18T05:44:47.861Z,140
2017-07-18T05:45:49.761Z,145
2017-07-18T05:46:51.635Z,145
2017-07-18T05:48:05.789Z,145
2017-07-18T05:49:07.695Z,145
2017-07-18T05:50:09.597Z,150
2017-07-18T05:51:11.477Z,150
2017-07-18T05:52:13.320Z,150
2017-07-18T05:53:15.152Z,155
2017-07-18T05:54:17.051Z,160
2017-07-18T05:55:18.932Z,165
2017-07-18T05:56:20.833Z,165
2017-07-18T05:57:34.991Z,165
2017-07-18T05:58:36.888Z,170
2017-07-18T05:59:38.764Z,170
2017-07-18T06:00:40.642Z,170
2017-07-18T06:01:42.461Z,170
2017-07-18T06:02:44.267Z,165
2017-07-18T06:03:46.145Z,165
2017-07-18T06:04:48.024Z,165
2017-07-18T06:05:49.901Z,160
2017-07-18T06:07:04.062Z,160
2017-07-18T06:08:05.936Z,165
2017-07-18T06:09:07.804Z,165
2017-07-18T06:10:09.683Z,170
2017-07-18T06:11:11.521Z,175
2017-07-18T06:12:13.336Z,180
2017-07-18T06:13:15.216Z,185
2017-07-18T06:14:17.111Z,190
2017-07-18T06:15:18.996Z,195
2017-07-18T06:16:33.170Z,200
2017-07-18T06:17:35.045Z,205
2017-07-18T06:18:36.924Z,210
2017-07-18T06:19:38.818Z,215
2017-07-18T06:20:40.644Z,220
2017-07-18T06:21:42.459Z,225
2017-07-18T06:22:44.327Z,230
2017-07-18T06:23:46.203Z,235
2017-07-18T06:24:48.109Z,240
2017-07-18T06:26:02.287Z,240
2017-07-18T06:27:04.168Z,245
2017-07-18T06:28:06.045Z,250
2017-07-18T06:29:07.923Z,255
2017-07-18T06:30:09.738Z,255
2017-07-18T06:31:11.560Z,260
2017-07-18T06:32:13.450Z,270
2017-07-18T06:33:15.332Z,280
2017-07-18T06:34:17.234Z,290
2017-07-18T06:35:31.384Z,300
2017-07-18T06:36:33.267Z,305
2017-07-18T06:37:35.143Z,315
2017-07-18T06:38:37.042Z,320
2017-07-18T06:39:38.860Z,325
2017-07-18T06:40:40.671Z,335
2017-07-18T06:41:42.557Z,340
2017-07-18T06:42:44.467Z,350
2017-07-18T06:43:46.337Z,355
2017-07-18T06:45:00.512Z,370
2017-07-18T06:46:02.389Z,380
2017-07-18T06:47:04.270Z,395
2017-07-18T06:48:06.177Z,410
2017-07-18T06:49:07.973Z,410
2017-07-18T06:50:09.793Z,415
2017-07-18T06:51:11.679Z,415
2017-07-18T06:52:13.562Z,415
2017-07-18T06:53:15.464Z,420
2017-07-18T06:54:29.644Z,420
2017-07-18T06:55:31.538Z,430
2017-07-18T06:56:33.423Z,440
2017-07-18T06:57:35.299Z,450
2017-07-18T06:58:37.141Z,450
2017-07-18T06:59:38.954Z,455
2017-07-18T07:00:40.856Z,455
2017-07-18T07:01:42.744Z,455
2017-07-18T07:02:44.624Z,460
2017-07-18T07:03:58.797Z,470
2017-07-18T07:05:00.680Z,480
2017-07-18T07:06:02.584Z,495
2017-07-18T07:07:04.481Z,500
2017-07-18T07:08:06.301Z,510
2017-07-18T07:09:08.114Z,520
2017-07-18T07:10:10.000Z,520
2017-07-18T07:11:11.905Z,530
2017-07-18T07:12:13.779Z,530
2017-07-18T07:13:27.938Z,530
2017-07-18T07:14:29.816Z,530
2017-07-18T07:15:31.696Z,520
2017-07-18T07:16:33.601Z,505
2017-07-18T07:17:35.415Z,480
2017-07-18T07:18:37.232Z,450
2017-07-18T07:19:39.112Z,420
2017-07-18T07:20:41.022Z,385
2017-07-18T07:21:42.920Z,355
2017-07-18T07:22:57.096Z,325
2017-07-18T07:23:59.000Z,325
2017-07-18T07:25:00.912Z,330
2017-07-18T07:26:02.779Z,345
2017-07-18T07:27:04.605Z,345
2017-07-18T07:28:06.415Z,350
2017-07-18T07:29:08.313Z,345
2017-07-18T07:30:10.197Z,350
2017-07-18T07:31:12.090Z,345
2017-07-18T07:32:26.245Z,345
2017-07-18T07:33:28.118Z,345
2017-07-18T07:34:30.007Z,345
2017-07-18T07:35:31.902Z,350
2017-07-18T07:36:33.721Z,350
2017-07-18T07:37:35.533Z,355
2017-07-18T07:38:37.435Z,355
2017-07-18T07:39:39.315Z,355
2017-07-18T07:40:41.217Z,355
2017-07-18T07:41:55.417Z,350
2017-07-18T07:42:57.294Z,340
2017-07-18T07:43:59.169Z,335
2017-07-18T07:45:01.070Z,340
2017-07-18T07:46:02.911Z,340
2017-07-18T07:47:04.720Z,345
2017-07-18T07:48:06.604Z,345
2017-07-18T07:49:08.482Z,345
2017-07-18T07:50:10.360Z,345
2017-07-18T07:51:24.532Z,345
2017-07-18T07:52:26.411Z,350
2017-07-18T07:53:28.310Z,350
2017-07-18T07:54:30.179Z,355
2017-07-18T07:55:31.998Z,360
2017-07-18T07:56:33.839Z,365
2017-07-18T07:57:35.738Z,370
2017-07-18T07:58:37.638Z,370
2017-07-18T07:59:39.544Z,375
2017-07-18T08:00:53.722Z,385
2017-07-18T08:01:55.619Z,390
2017-07-18T08:02:57.494Z,400
2017-07-18T08:03:59.368Z,410
2017-07-18T08:05:01.182Z,420
2017-07-18T08:06:03.001Z,435
2017-07-18T08:07:04.900Z,465
2017-07-18T08:08:06.804Z,485
2017-07-18T08:09:08.701Z,515
2017-07-18T08:10:22.855Z,550
2017-07-18T08:11:24.755Z,580
2017-07-18T08:12:26.628Z,630
2017-07-18T08:13:28.506Z,680
2017-07-18T08:14:30.345Z,715
2017-07-18T08:15:32.158Z,705
2017-07-18T08:16:33.983Z,690
2017-07-18T08:17:35.822Z,670
2017-07-18T08:18:37.635Z,670
2017-07-18T08:19:51.784Z,675
2017-07-18T08:20:53.666Z,665
2017-07-18T08:21:55.545Z,670
2017-07-18T08:22:57.442Z,690
2017-07-18T08:23:59.261Z,695
2017-07-18T08:25:01.097Z,715
2017-07-18T08:26:02.974Z,710
2017-07-18T08:27:04.858Z,720
2017-07-18T08:28:06.739Z,705
2017-07-18T08:29:20.919Z,705
2017-07-18T08:30:22.792Z,700
2017-07-18T08:31:24.666Z,690
2017-07-18T08:32:26.543Z,680
2017-07-18T08:33:28.363Z,690
2017-07-18T08:34:30.181Z,680
2017-07-18T08:35:32.059Z,680
2017-07-18T08:36:33.936Z,680
2017-07-18T08:37:35.820Z,685
2017-07-18T08:38:50.002Z,665
2017-07-18T08:39:51.913Z,660
2017-07-18T08:40:53.813Z,645
2017-07-18T08:41:55.689Z,610
2017-07-18T08:42:57.509Z,590
2017-07-18T08:43:59.328Z,560
2017-07-18T08:45:01.239Z,535
2017-07-18T08:46:03.107Z,495
2017-07-18T08:47:04.985Z,455
2017-07-18T08:48:19.168Z,410
2017-07-18T08:49:21.038Z,380
2017-07-18T08:50:22.920Z,360
2017-07-18T08:51:24.792Z,345
2017-07-18T08:52:26.610Z,340
2017-07-18T08:53:28.428Z,335
2017-07-18T08:54:30.331Z,330
2017-07-18T08:55:32.234Z,325
2017-07-18T08:56:34.135Z,320
2017-07-18T08:57:48.310Z,315
2017-07-18T08:58:50.191Z,315
2017-07-18T08:59:52.096Z,310
2017-07-18T09:00:53.996Z,310
2017-07-18T09:01:55.815Z,305
2017-07-18T09:02:57.651Z,300
2017-07-18T09:03:59.533Z,300
2017-07-18T09:05:01.433Z,295
2017-07-18T09:06:03.315Z,295
2017-07-18T09:07:17.491Z,295
2017-07-18T09:08:19.372Z,300
2017-07-18T09:09:21.274Z,295
2017-07-18T09:10:23.170Z,295
2017-07-18T09:11:25.013Z,290
2017-07-18T09:12:26.852Z,290
2017-07-18T09:13:28.728Z,285
2017-07-18T09:14:30.629Z,285
2017-07-18T09:15:32.543Z,285
2017-07-18T09:16:46.674Z,285
2017-07-18T09:17:48.550Z,285
2017-07-18T09:18:50.423Z,285
2017-07-18T09:19:52.299Z,280
2017-07-18T09:20:54.120Z,280
2017-07-18T09:21:55.954Z,280
2017-07-18T09:22:57.832Z,280
2017-07-18T09:23:59.710Z,280
2017-07-18T09:25:01.582Z,280
2017-07-18T09:26:15.738Z,280
2017-07-18T09:27:17.614Z,280
2017-07-18T09:28:19.486Z,280
2017-07-18T09:29:21.387Z,280
2017-07-18T09:30:23.222Z,285
2017-07-18T09:31:25.037Z,280
2017-07-18T09:32:26.936Z,280
2017-07-18T09:33:28.817Z,280
2017-07-18T09:34:30.721Z,280
2017-07-18T09:35:44.872Z,280
2017-07-18T09:36:46.773Z,280
2017-07-18T09:37:48.668Z,280
2017-07-18T09:38:50.548Z,275
2017-07-18T09:39:52.385Z,275
2017-07-18T09:40:54.203Z,275
2017-07-18T09:41:56.104Z,275
2017-07-18T09:42:58.004Z,275
2017-07-18T09:43:59.874Z,275
2017-07-18T09:45:14.027Z,275
2017-07-18T09:46:15.906Z,275
2017-07-18T09:47:17.807Z,275
2017-07-18T09:48:19.698Z,275
2017-07-18T09:49:21.519Z,275
2017-07-18T09:50:23.334Z,275
2017-07-18T09:51:25.236Z,275
2017-07-18T09:52:27.139Z,280
2017-07-18T09:53:29.036Z,280
2017-07-18T09:54:43.190Z,275
2017-07-18T09:55:45.062Z,275
2017-07-18T09:56:46.938Z,275
2017-07-18T09:57:48.821Z,275
2017-07-18T09:58:50.655Z,275
2017-07-18T09:59:52.469Z,275
2017-07-18T10:00:54.344Z,275
2017-07-18T10:01:56.220Z,275
2017-07-18T10:02:58.099Z,275
2017-07-18T10:04:12.273Z,275
2017-07-18T10:05:14.146Z,275
2017-07-18T10:06:16.025Z,275
2017-07-18T10:07:17.927Z,275
2017-07-18T10:08:19.762Z,275
2017-07-18T10:09:21.581Z,275
2017-07-18T10:10:23.480Z,275
2017-07-18T10:11:25.374Z,275
2017-07-18T10:12:27.255Z,275
2017-07-18T10:13:41.410Z,275
2017-07-18T10:14:43.312Z,275
2017-07-18T10:15:45.209Z,275
2017-07-18T10:16:47.086Z,275
2017-07-18T10:17:48.925Z,275
2017-07-18T10:18:50.738Z,275
2017-07-18T10:19:52.636Z,275
2017-07-18T10:20:54.489Z,275
2017-07-18T10:21:56.361Z,280
2017-07-18T10:23:10.526Z,280
2017-07-18T10:24:12.391Z,280
2017-07-18T10:25:14.266Z,280
2017-07-18T10:26:16.173Z,280
2017-07-18T10:27:17.983Z,280
2017-07-18T10:28:19.820Z,280
2017-07-18T10:29:21.726Z,280
2017-07-18T10:30:23.598Z,285
2017-07-18T10:31:25.491Z,285
2017-07-18T10:32:39.646Z,285
2017-07-18T10:33:41.523Z,290
2017-07-18T10:34:43.434Z,290
2017-07-18T10:35:45.311Z,285
2017-07-18T10:36:47.147Z,285
2017-07-18T10:37:48.961Z,285
2017-07-18T10:38:50.840Z,280
2017-07-18T10:39:52.740Z,285
2017-07-18T10:40:54.642Z,280
2017-07-18T10:42:08.818Z,285
2017-07-18T10:43:10.698Z,285
2017-07-18T10:44:12.598Z,285
2017-07-18T10:45:14.495Z,285
2017-07-18T10:46:16.335Z,285
2017-07-18T10:47:18.151Z,285
2017-07-18T10:48:20.047Z,290
2017-07-18T10:49:21.928Z,285
2017-07-18T10:50:23.827Z,290
2017-07-18T10:51:37.979Z,290
2017-07-18T10:52:39.855Z,290
2017-07-18T10:53:41.758Z,295
2017-07-18T10:54:43.649Z,295
2017-07-18T10:55:45.471Z,295
2017-07-18T10:56:47.308Z,295
2017-07-18T10:57:49.182Z,295
2017-07-18T10:58:51.063Z,295
2017-07-18T10:59:52.967Z,300
2017-07-18T11:01:07.144Z,300
2017-07-18T11:02:09.041Z,300
2017-07-18T11:03:10.918Z,305
2017-07-18T11:04:12.793Z,305
2017-07-18T11:05:14.616Z,305
2017-07-18T11:06:16.448Z,310
2017-07-18T11:07:18.329Z,310
2017-07-18T11:08:20.222Z,310
2017-07-18T11:09:22.098Z,305
2017-07-18T11:10:36.254Z,330
2017-07-18T11:11:38.157Z,345
2017-07-18T11:12:40.039Z,370
2017-07-18T11:13:41.937Z,380
2017-07-18T11:14:43.778Z,385
2017-07-18T11:15:45.589Z,400
2017-07-18T11:16:47.465Z,390
2017-07-18T11:17:49.344Z,395
2017-07-18T11:18:51.248Z,400
2017-07-18T11:20:05.422Z,405
2017-07-18T11:21:07.298Z,415
2017-07-18T11:22:09.173Z,425
2017-07-18T11:23:11.056Z,470
2017-07-18T11:24:12.890Z,485
2017-07-18T11:25:14.708Z,485
2017-07-18T11:26:16.591Z,495
2017-07-18T11:27:18.467Z,510
2017-07-18T11:28:20.341Z,520
2017-07-18T11:29:34.500Z,515
2017-07-18T11:30:36.400Z,520
2017-07-18T11:31:38.281Z,525
2017-07-18T11:32:40.182Z,520
2017-07-18T11:33:42.023Z,515
2017-07-18T11:34:43.837Z,495
2017-07-18T11:35:45.718Z,485
2017-07-18T11:36:47.592Z,470
2017-07-18T11:37:49.474Z,460
2017-07-18T11:39:03.651Z,460
2017-07-18T11:40:05.525Z,470
2017-07-18T11:41:07.400Z,470
2017-07-18T11:42:09.283Z,470
2017-07-18T11:43:11.127Z,470
2017-07-18T11:44:12.964Z,460
2017-07-18T11:45:14.842Z,460
2017-07-18T11:46:16.748Z,470
2017-07-18T11:47:18.646Z,490
2017-07-18T11:48:32.806Z,510
2017-07-18T11:49:34.681Z,530
2017-07-18T11:50:36.562Z,535
2017-07-18T11:51:38.462Z,515
2017-07-18T11:52:40.278Z,480
2017-07-18T11:53:42.098Z,450
2017-07-18T11:54:43.971Z,435
2017-07-18T11:55:45.851Z,440
2017-07-18T11:56:47.728Z,440
2017-07-18T11:58:01.890Z,425
2017-07-18T11:59:03.794Z,400
2017-07-18T12:00:05.694Z,385
2017-07-18T12:01:07.572Z,375
2017-07-18T12:02:09.389Z,370
2017-07-18T12:03:11.212Z,370
2017-07-18T12:04:13.087Z,360
2017-07-18T12:05:14.986Z,365
2017-07-18T12:06:16.864Z,395
2017-07-18T12:07:31.019Z,395
2017-07-18T12:08:32.903Z,415
2017-07-18T12:09:34.804Z,435
2017-07-18T12:10:36.679Z,440
2017-07-18T12:11:38.524Z,425
2017-07-18T12:12:40.360Z,400
2017-07-18T12:13:42.239Z,380
2017-07-18T12:14:44.114Z,375
2017-07-18T12:15:45.989Z,375
2017-07-18T12:17:00.149Z,385
2017-07-18T12:18:02.054Z,390
2017-07-18T12:19:03.956Z,400
2017-07-18T12:20:05.829Z,400
2017-07-18T12:21:07.650Z,400
2017-07-18T12:22:09.487Z,380
2017-07-18T12:23:11.372Z,370
2017-07-18T12:24:13.279Z,370
2017-07-18T12:25:15.158Z,375
2017-07-18T12:26:29.335Z,410
2017-07-18T12:27:31.235Z,450
2017-07-18T12:28:33.117Z,500
2017-07-18T12:29:34.992Z,505
2017-07-18T12:30:36.838Z,510
2017-07-18T12:31:38.657Z,515
2017-07-18T12:32:40.537Z,510
2017-07-18T12:33:42.419Z,505
2017-07-18T12:34:44.301Z,520
2017-07-18T12:35:58.484Z,540
2017-07-18T12:37:00.367Z,570
2017-07-18T12:38:02.268Z,575
2017-07-18T12:39:04.142Z,550
2017-07-18T12:40:05.966Z,550
2017-07-18T12:41:07.809Z,570
2017-07-18T12:42:09.711Z,575
2017-07-18T12:43:11.612Z,540
2017-07-18T12:44:13.492Z,505
2017-07-18T12:45:27.651Z,455
2017-07-18T12:46:29.528Z,450
2017-07-18T12:47:31.408Z,450
2017-07-18T12:48:33.310Z,475
2017-07-18T12:49:35.134Z,455
2017-07-18T12:50:36.966Z,440
2017-07-18T12:51:38.842Z,455
2017-07-18T12:52:40.720Z,450
2017-07-18T12:53:42.607Z,440
2017-07-18T12:54:56.791Z,435
2017-07-18T12:55:58.697Z,455
2017-07-18T12:57:00.571Z,465
2017-07-18T12:58:02.448Z,475
2017-07-18T12:59:04.268Z,480
2017-07-18T13:00:06.087Z,470
2017-07-18T13:01:07.990Z,440
2017-07-18T13:02:09.865Z,420
2017-07-18T13:03:11.752Z,430
2017-07-18T13:04:25.935Z,420
2017-07-18T13:05:27.811Z,395
2017-07-18T13:06:29.693Z,390
2017-07-18T13:07:31.589Z,385
2017-07-18T13:08:33.408Z,380
2017-07-18T13:09:35.224Z,375
2017-07-18T13:10:37.129Z,365
2017-07-18T13:11:39.030Z,370
2017-07-18T13:12:40.914Z,360
2017-07-18T13:13:55.094Z,350
2017-07-18T13:14:56.967Z,350
2017-07-18T13:15:58.847Z,350
2017-07-18T13:17:00.722Z,360
2017-07-18T13:18:02.564Z,360
2017-07-18T13:19:04.381Z,350
2017-07-18T13:20:06.262Z,355
2017-07-18T13:21:08.145Z,355
2017-07-18T13:22:10.048Z,355
2017-07-18T13:23:24.240Z,365
2017-07-18T13:24:26.122Z,380
2017-07-18T13:25:28.023Z,390
2017-07-18T13:26:29.921Z,400
2017-07-18T13:27:31.745Z,410
2017-07-18T13:28:33.582Z,420
2017-07-18T13:29:35.465Z,415
2017-07-18T13:30:37.349Z,405
2017-07-18T13:31:39.245Z,385
2017-07-18T13:32:53.405Z,375
2017-07-18T13:33:55.300Z,375
2017-07-18T13:34:57.191Z,370
2017-07-18T13:35:59.088Z,370
2017-07-18T13:37:00.910Z,375
2017-07-18T13:38:02.760Z,370
2017-07-18T13:39:04.656Z,375
2017-07-18T13:40:06.554Z,380
2017-07-18T13:41:08.439Z,390
2017-07-18T13:42:22.592Z,395
2017-07-18T13:43:24.468Z,400
2017-07-18T13:44:26.345Z,405
2017-07-18T13:45:28.226Z,410
2017-07-18T13:46:30.073Z,420
2017-07-18T13:47:31.915Z,420
2017-07-18T13:48:33.815Z,420
2017-07-18T13:49:35.694Z,420
2017-07-18T13:50:37.599Z,415
2017-07-18T13:51:51.776Z,410
2017-07-18T13:52:53.681Z,410
2017-07-18T13:53:55.579Z,400
2017-07-18T13:54:57.463Z,390
2017-07-18T13:55:59.304Z,385
2017-07-18T13:57:01.122Z,380
2017-07-18T13:58:03.027Z,375
2017-07-18T13:59:04.904Z,365
2017-07-18T14:00:06.808Z,360
2017-07-18T14:01:20.992Z,355
2017-07-18T14:02:22.895Z,355
2017-07-18T14:03:24.775Z,355
2017-07-18T14:04:26.649Z,360
2017-07-18T14:05:28.467Z,360
2017-07-18T14:06:30.280Z,360
2017-07-18T14:07:32.167Z,370
2017-07-18T14:08:34.070Z,370
2017-07-18T14:09:35.934Z,370
2017-07-18T14:10:50.116Z,370
2017-07-18T14:11:52.016Z,375
2017-07-18T14:12:53.900Z,380
2017-07-18T14:13:55.802Z,385
2017-07-18T14:14:57.612Z,385
2017-07-18T14:15:59.429Z,390
2017-07-18T14:17:01.306Z,395
2017-07-18T14:18:03.191Z,395
2017-07-18T14:19:05.068Z,400
2017-07-18T14:20:19.244Z,410
2017-07-18T14:21:21.120Z,415
2017-07-18T14:22:22.998Z,410
2017-07-18T14:23:24.874Z,410
2017-07-18T14:24:26.695Z,410
2017-07-18T14:25:28.533Z,410
2017-07-18T14:26:30.412Z,415
2017-07-18T14:27:32.295Z,415
2017-07-18T14:28:34.159Z,415
2017-07-18T14:29:48.369Z,410
2017-07-18T14:30:50.252Z,410
2017-07-18T14:31:52.127Z,410
2017-07-18T14:32:54.031Z,400
2017-07-18T14:33:55.843Z,395
2017-07-18T14:34:57.659Z,385
2017-07-18T14:35:59.538Z,380
2017-07-18T14:37:01.421Z,380
2017-07-18T14:38:03.262Z,380
2017-07-18T14:39:17.416Z,380
2017-07-18T14:40:19.317Z,375
2017-07-18T14:41:21.196Z,375
2017-07-18T14:42:23.074Z,380
2017-07-18T14:43:24.896Z,385
2017-07-18T14:44:26.742Z,390
2017-07-18T14:45:28.613Z,390